Flight Track Log - Related Links

Times and Time Zones

All times are in EDT time to prevent confusion due to time zone crossing. See the EJA101 flight status page for this flight to view local times or setup timezone preferences in your user account.

Time Position Orientation Groundspeed Altitude Reporting Facility
EDT Latitude Longitude Course Direction KTS MPH feet Rate Location/Type
Sun 09:53:44 PM 41.8010 -87.7320 44° Northeast 170 196 1,300  Level FlightAware ADS-B
Sun 09:53:54 PM 41.8070 -87.7220 51° Northeast 189 217 1,600 2,400 Climbing FlightAware ADS-B
Sun 09:54:04 PM 41.8090 -87.7090 78° East 195 224 2,100 1,941 Climbing FlightAware ADS-B
Sun 09:54:28 PM 41.8090 -87.6820 90° East 223 257 2,700 955 Climbing FlightAware ADS-B
Sun 09:54:48 PM 41.8100 -87.6480 88° East 241 277 2,800 300 Climbing FlightAware ADS-B
Sun 09:55:08 PM 41.8120 -87.6190 85° East 217 250 2,900 1,050 Climbing FlightAware ADS-B
Sun 09:55:28 PM 41.8140 -87.5920 84° East 221 254 3,500 2,000 Climbing FlightAware ADS-B
Sun 09:55:44 PM 41.8160 -87.5700 83° East 224 258 4,100 2,167 Climbing FlightAware ADS-B
Sun 09:56:04 PM 41.8170 -87.5420 87° East 226 260 4,800 2,100 Climbing FlightAware ADS-B
Sun 09:56:24 PM 41.8140 -87.5130 98° East 247 284 5,500 1,950 Climbing FlightAware ADS-B
Sun 09:56:44 PM 41.8100 -87.4800 99° East 278 320 6,100 2,182 Climbing FlightAware ADS-B
Sun 09:57:08 PM 41.8050 -87.4390 99° East 288 331 7,100 2,864 Climbing FlightAware ADS-B
Sun 09:57:28 PM 41.8010 -87.4040 99° East 290 334 8,200 3,300 Climbing FlightAware ADS-B
Sun 09:57:48 PM 41.7970 -87.3670 98° East 295 339 9,300 3,000 Climbing FlightAware ADS-B
Sun 09:58:24 PM 41.7900 -87.3020 98° East 301 346 11,000 2,583 Climbing FlightAware ADS-B
Sun 09:59:00 PM 41.7820 -87.2370 99° East 315 362 12,400 1,543 Climbing FlightAware ADS-B
Sun 09:59:34 PM 41.7740 -87.1640 98° East 362 417 12,800 1,457 Climbing FlightAware ADS-B
Sun 10:00:10 PM 41.7640 -87.0810 99° East 378 435 14,100 2,333 Climbing FlightAware ADS-B
Sun 10:00:46 PM 41.7630 -86.9960 91° East 383 441 15,600 2,382 Climbing FlightAware ADS-B
Sun 10:01:18 PM 41.7640 -86.9270 89° East 386 444 16,800 2,294 Climbing FlightAware ADS-B
Sun 10:01:54 PM 41.7650 -86.8320 89° East 395 455 18,200 2,250 Climbing FlightAware ADS-B
Sun 10:02:30 PM 41.7650 -86.7450 90° East 400 460 19,500 2,118 Climbing FlightAware ADS-B
Sun 10:03:02 PM 41.7660 -86.6660 89° East 406 467 20,600 2,029 Climbing FlightAware ADS-B
Sun 10:03:38 PM 41.7670 -86.5740 89° East 414 476 21,800 2,083 Climbing FlightAware ADS-B
Sun 10:04:14 PM 41.7680 -86.4840 89° East 418 481 23,100 2,057 Climbing FlightAware ADS-B
Sun 10:04:48 PM 41.7680 -86.3920 90° East 425 489 24,200 1,765 Climbing FlightAware ADS-B
Sun 10:05:22 PM 41.7700 -86.3150 88° East 431 496 25,100 1,853 Climbing FlightAware ADS-B
Sun 10:05:56 PM 41.7790 -86.2160 83° East 433 498 26,300 1,833 Climbing FlightAware ADS-B
Sun 10:06:34 PM 41.7900 -86.1120 82° East 442 509 27,300 1,500 Climbing FlightAware ADS-B
Sun 10:07:08 PM 41.7990 -86.0230 82° East 447 514 28,100 1,543 Climbing FlightAware ADS-B
Sun 10:07:44 PM 41.8100 -85.9230 82° East 451 519 29,100 1,606 Climbing FlightAware ADS-B
Sun 10:08:19 PM 41.8200 -85.8240 82° East 455 524 30,000 1,433 Climbing FlightAware ADS-B
Sun 10:08:51 PM 41.8290 -85.7350 82° East 460 529 30,700 1,588 Climbing FlightAware ADS-B
Sun 10:09:27 PM 41.8390 -85.6320 83° East 456 525 31,800 1,833 Climbing FlightAware ADS-B
Sun 10:10:03 PM 41.8480 -85.5330 83° East 453 521 32,900 1,750 Climbing FlightAware ADS-B
Sun 10:10:39 PM 41.8580 -85.4330 82° East 452 520 33,900 1,727 Climbing FlightAware ADS-B
Sun 10:11:09 PM 41.8660 -85.3500 83° East 449 517 34,800 1,629 Climbing FlightAware ADS-B
Sun 10:11:49 PM 41.8770 -85.2340 83° East 450 518 35,800 1,421 Climbing FlightAware ADS-B
Sun 10:12:25 PM 41.8870 -85.1370 82° East 451 519 36,600 1,059 Climbing FlightAware ADS-B
Sun 10:12:57 PM 41.8970 -85.0480 81° East 460 529 37,000 1,029 Climbing FlightAware ADS-B
Sun 10:13:35 PM 41.9080 -84.9390 82° East 463 533 37,800 1,059 Climbing FlightAware ADS-B
Sun 10:14:05 PM 41.9160 -84.8570 83° East 467 537 38,200 882 Climbing FlightAware ADS-B
Sun 10:14:43 PM 41.9270 -84.7500 82° East 471 542 38,800 857 Climbing FlightAware ADS-B
Sun 10:15:15 PM 41.9350 -84.6610 83° East 475 547 39,200 600 Climbing FlightAware ADS-B
Sun 10:15:53 PM 41.9460 -84.5550 82° East 483 556 39,500 951 Climbing FlightAware ADS-B
Sun 10:16:37 PM 41.9600 -84.4140 82° East 476 548 40,500 1,000 Climbing FlightAware ADS-B
Sun 10:17:11 PM 41.9690 -84.3110 83° East 480 552 40,800 441 Climbing FlightAware ADS-B
Sun 10:17:45 PM 41.9790 -84.2120 82° East 486 559 41,000 171 Climbing FlightAware ADS-B
Sun 10:18:21 PM 41.9890 -84.1060 83° East 496 571 41,000  Level FlightAware ADS-B
Sun 10:18:57 PM 42.0000 -83.9910 83° East 507 583 41,000  Level FlightAware ADS-B
Sun 10:19:29 PM 42.0110 -83.8890 82° East 514 592 41,000  Level FlightAware ADS-B
Sun 10:20:05 PM 42.0240 -83.7750 81° East 518 596 41,000  Level FlightAware ADS-B
Sun 10:20:41 PM 42.0370 -83.6620 81° East 518 596 41,000  Level FlightAware ADS-B
Sun 10:21:17 PM 42.0510 -83.5480 81° East 519 597 41,000  Level FlightAware ADS-B
Sun 10:21:49 PM 42.0620 -83.4430 82° East 523 602 41,000  Level FlightAware ADS-B
Sun 10:22:25 PM 42.0760 -83.3280 81° East 523 602 41,000  Level FlightAware ADS-B
Sun 10:23:01 PM 42.0880 -83.2140 82° East 518 596 41,000  Level FlightAware ADS-B
Sun 10:23:37 PM 42.1010 -83.1000 81° East 518 596 41,000  Level FlightAware ADS-B
Sun 10:24:09 PM 42.1120 -82.9960 82° East 517 595 41,000  Level FlightAware ADS-B
Sun 10:24:45 PM 42.1250 -82.8850 81° East 519 597 41,000  Level FlightAware ADS-B
Sun 10:25:21 PM 42.1370 -82.7680 82° East 520 598 41,000  Level FlightAware ADS-B
Sun 10:25:53 PM 42.1480 -82.6660 82° East 519 597 41,000  Level FlightAware ADS-B
Sun 10:26:29 PM 42.1610 -82.5480 82° East 519 597 41,000  Level FlightAware ADS-B
Sun 10:27:07 PM 42.1730 -82.4320 82° East 523 602 41,000  Level FlightAware ADS-B
Sun 10:27:41 PM 42.1850 -82.3210 82° East 526 605 41,000  Level FlightAware ADS-B
Sun 10:28:13 PM 42.1960 -82.2160 82° East 525 604 41,000  Level FlightAware ADS-B
Sun 10:28:51 PM 42.2080 -82.0930 82° East 526 605 41,000  Level FlightAware ADS-B
Sun 10:29:27 PM 42.2200 -81.9760 82° East 528 608 41,000  Level FlightAware ADS-B
Sun 10:29:59 PM 42.2310 -81.8720 82° East 529 609 41,000  Level FlightAware ADS-B
Sun 10:30:42 PM 42.2440 -81.7370 83° East 532 612 41,000  Level FlightAware ADS-B
Sun 10:31:13 PM 42.2530 -81.6400 83° East 534 615 41,000  Level FlightAware ADS-B
Sun 10:31:48 PM 42.2650 -81.5230 82° East 538 619 41,000  Level FlightAware ADS-B
Sun 10:32:28 PM 42.2770 -81.3950 83° East 537 618 41,000  Level FlightAware ADS-B
Sun 10:33:03 PM 42.2880 -81.2760 83° East 539 620 41,000  Level FlightAware ADS-B
Sun 10:33:38 PM 42.3000 -81.1540 82° East 545 627 41,000  Level FlightAware ADS-B
Sun 10:34:20 PM 42.3120 -81.0200 83° East 550 633 41,000  Level FlightAware ADS-B
Sun 10:34:53 PM 42.3230 -80.9020 83° East 549 632 41,000  Level FlightAware ADS-B
Sun 10:35:28 PM 42.3340 -80.7850 83° East 547 629 41,000  Level FlightAware ADS-B
Sun 10:36:03 PM 42.3450 -80.6640 83° East 546 628 41,000  Level FlightAware ADS-B
Sun 10:36:38 PM 42.3550 -80.5460 83° East 548 631 41,000  Level FlightAware ADS-B
Sun 10:37:13 PM 42.3650 -80.4280 83° East 552 635 41,000  Level FlightAware ADS-B
Sun 10:37:48 PM 42.3760 -80.3060 83° East 556 640 41,000  Level FlightAware ADS-B
Sun 10:38:23 PM 42.3860 -80.1850 84° East 555 639 41,000  Level FlightAware ADS-B
Sun 10:38:58 PM 42.3960 -80.0630 84° East 557 641 41,000  Level FlightAware ADS-B
Sun 10:39:33 PM 42.4060 -79.9480 83° East 559 643 41,000  Level FlightAware ADS-B
Sun 10:40:08 PM 42.4160 -79.8210 84° East 557 641 41,000  Level FlightAware ADS-B
Sun 10:40:43 PM 42.4260 -79.7020 83° East 557 641 41,000  Level FlightAware ADS-B
Sun 10:41:18 PM 42.4360 -79.5800 84° East 559 643 41,000  Level FlightAware ADS-B
Sun 10:41:53 PM 42.4450 -79.4600 84° East 559 643 41,000  Level FlightAware ADS-B
Sun 10:42:30 PM 42.4550 -79.3380 84° East 559 643 41,000  Level FlightAware ADS-B
Sun 10:43:03 PM 42.4640 -79.2180 84° East 560 644 41,000  Level FlightAware ADS-B
Sun 10:43:38 PM 42.4730 -79.0940 84° East 560 644 41,000  Level FlightAware ADS-B
Sun 10:44:13 PM 42.4820 -78.9730 84° East 561 646 41,000  Level FlightAware ADS-B
Sun 10:44:48 PM 42.4910 -78.8500 84° East 563 648 41,000  Level FlightAware ADS-B
Sun 10:45:23 PM 42.5000 -78.7310 84° East 562 647 41,000  Level FlightAware ADS-B
Sun 10:45:58 PM 42.5090 -78.6020 85° East 566 651 41,000  Level FlightAware ADS-B
Sun 10:46:33 PM 42.5180 -78.4850 84° East 567 652 41,000  Level FlightAware ADS-B
Sun 10:47:08 PM 42.5260 -78.3620 85° East 567 652 41,000  Level FlightAware ADS-B
Sun 10:47:43 PM 42.5350 -78.2340 85° East 570 656 41,000  Level FlightAware ADS-B
Sun 10:48:18 PM 42.5430 -78.1110 85° East 574 661 41,000  Level FlightAware ADS-B
Sun 10:48:53 PM 42.5510 -77.9840 85° East 577 664 41,000  Level FlightAware ADS-B
Sun 10:49:28 PM 42.5590 -77.8580 85° East 580 667 41,000  Level FlightAware ADS-B
Sun 10:49:58 PM 42.5670 -77.7460 84° East 582 670 41,000  Level FlightAware ADS-B
Sun 10:50:38 PM 42.5760 -77.6040 85° East 583 671 41,000  Level FlightAware ADS-B
Sun 10:51:13 PM 42.5830 -77.4790 86° East 582 670 41,000  Level FlightAware ADS-B
Sun 10:51:48 PM 42.5910 -77.3470 85° East 587 676 41,000  Level FlightAware ADS-B
Sun 10:52:23 PM 42.5990 -77.2210 85° East 589 678 41,000  Level FlightAware ADS-B
Sun 10:52:58 PM 42.6060 -77.0930 86° East 591 680 41,000  Level FlightAware ADS-B
Sun 10:53:33 PM 42.6130 -76.9610 86° East 582 670 41,000  Level FlightAware ADS-B
Sun 10:54:08 PM 42.6200 -76.8370 86° East 579 666 41,000  Level FlightAware ADS-B
Sun 10:54:43 PM 42.6270 -76.7090 86° East 581 669 41,000  Level FlightAware ADS-B
Sun 10:55:18 PM 42.6340 -76.5830 86° East 583 671 41,000  Level FlightAware ADS-B
Sun 10:55:53 PM 42.6400 -76.4610 86° East 582 670 41,000 257 Level FlightAware ADS-B
Sun 10:56:28 PM 42.6470 -76.3280 86° East 577 664 41,300 686 Climbing FlightAware ADS-B
Sun 10:57:03 PM 42.6540 -76.2030 86° East 569 655 41,800 880 Climbing FlightAware ADS-B
Sun 10:57:43 PM 42.6600 -76.0640 87° East 558 642 42,400 900 Climbing FlightAware ADS-B
Sun 10:58:23 PM 42.6670 -75.9260 86° East 550 633 43,000 480 Climbing FlightAware ADS-B
Sun 10:58:58 PM 42.6730 -75.8050 86° East 553 636 43,000  Level FlightAware ADS-B
Sun 10:59:28 PM 42.6770 -75.7000 87° East 553 636 43,000  Level FlightAware ADS-B
Sun 11:00:03 PM 42.6830 -75.5820 86° East 554 638 43,000  Level FlightAware ADS-B
Sun 11:00:43 PM 42.6890 -75.4410 87° East 553 636 43,000  Level FlightAware ADS-B
Sun 11:01:15 PM 42.6940 -75.3250 87° East 554 638 43,000  Level FlightAware ADS-B
Sun 11:01:51 PM 42.6990 -75.1920 87° East 553 636 43,000  Level FlightAware ADS-B
Sun 11:02:25 PM 42.7040 -75.0760 87° East 551 634 43,000  Level FlightAware ADS-B
Sun 11:02:49 PM 42.7071 -74.9929 87° East 551 634 43,000  Level FlightAware ADS-B
Sun 11:03:20 PM 42.7112 -74.8861 87° East 551 634 43,000  Level FlightAware ADS-B
Sun 11:04:03 PM 42.7168 -74.7362 87° East 552 635 43,000  Level FlightAware ADS-B
Sun 11:04:51 PM 42.7227 -74.5703 87° East 553 636 43,000  Level FlightAware ADS-B
Sun 11:05:22 PM 42.7248 -74.4645 88° East 552 635 43,000  Level FlightAware ADS-B
Sun 11:05:58 PM 42.7274 -74.3385 88° East 553 636 43,000  Level FlightAware ADS-B
Sun 11:06:33 PM 42.7300 -74.2200 88° East 555 639 43,000  Level FlightAware ADS-B
Sun 11:07:01 PM 42.7310 -74.1220 89° East 555 639 43,000  Level FlightAware ADS-B
Sun 11:07:15 PM 42.7323 -74.0721 88° East 555 639 43,000  Level FlightAware ADS-B
Sun 11:08:09 PM 42.7350 -73.8850 89° East 553 636 43,000  Level FlightAware ADS-B
Sun 11:08:49 PM 42.7374 -73.7432 89° East 43,000  Level FlightAware ADS-B
Sun 11:09:04 PM 42.7381 -73.6939 89° East 555 639 43,000  Level FlightAware ADS-B
Sun 11:09:41 PM 42.7397 -73.5656 89° East 555 639 43,000  Level FlightAware ADS-B
Sun 11:10:35 PM 42.7419 -73.3741 89° East 556 640 43,000  Level FlightAware ADS-B
Sun 11:11:07 PM 42.7430 -73.2661 89° East 556 640 43,000  Level FlightAware ADS-B
Sun 11:11:39 PM 42.7441 -73.1539 89° East 556 640 43,000  Level FlightAware ADS-B
Sun 11:12:10 PM 42.7450 -73.0444 89° East 557 641 43,000  Level FlightAware ADS-B
Sun 11:12:55 PM 42.7460 -72.8870 89° East 558 642 43,000  Level FlightAware ADS-B
Sun 11:13:31 PM 42.7470 -72.7610 89° East 559 643 43,000  Level FlightAware ADS-B
Sun 11:14:05 PM 42.7470 -72.6440 90° East 560 644 43,000  Level FlightAware ADS-B
Sun 11:14:43 PM 42.7480 -72.5070 89° East 560 644 43,000  Level FlightAware ADS-B
Sun 11:15:19 PM 42.7480 -72.3830 90° East 559 643 43,000  Level FlightAware ADS-B
Sun 11:15:51 PM 42.7480 -72.2710 90° East 560 644 43,000  Level FlightAware ADS-B
Sun 11:16:41 PM 42.7490 -72.0960 89° East 561 646 43,000  Level FlightAware ADS-B
Sun 11:17:13 PM 42.7480 -72.0400 91° East 562 647 43,000  Level FlightAware ADS-B
Sun 11:17:51 PM 42.7730 -71.8490 80° East 562 647 43,000  Level FlightAware ADS-B
Sun 11:18:25 PM 42.8050 -71.7420 68° East 561 646 43,000  Level FlightAware ADS-B
Sun 11:19:03 PM 42.8430 -71.6170 67° East 562 647 43,000  Level FlightAware ADS-B
Sun 11:19:35 PM 42.8740 -71.5120 68° East 562 647 43,000  Level FlightAware ADS-B
Sun 11:20:12 PM 42.9100 -71.3930 68° East 561 646 43,000  Level FlightAware ADS-B
Sun 11:20:43 PM 42.9410 -71.2900 68° East 563 648 43,000  Level FlightAware ADS-B
Sun 11:21:19 PM 42.9760 -71.1720 68° East 562 647 43,000  Level FlightAware ADS-B
Sun 11:21:55 PM 43.0110 -71.0530 68° East 563 648 43,000  Level FlightAware ADS-B
Sun 11:22:33 PM 43.0490 -70.9260 68° East 564 649 43,000  Level FlightAware ADS-B
Sun 11:23:05 PM 43.0790 -70.8230 68° East 563 648 43,000  Level FlightAware ADS-B
Sun 11:23:41 PM 43.1140 -70.7040 68° East 566 651 43,000  Level FlightAware ADS-B
Sun 11:24:13 PM 43.1440 -70.5990 69° East 567 652 43,000  Level FlightAware ADS-B
Sun 11:24:51 PM 43.1820 -70.4700 68° East 564 649 43,000  Level FlightAware ADS-B
Sun 11:25:27 PM 43.2150 -70.3540 69° East 565 650 43,000  Level FlightAware ADS-B
Sun 11:26:03 PM 43.2500 -70.2320 68° East 565 650 43,000  Level FlightAware ADS-B
Sun 11:26:35 PM 43.2800 -70.1260 69° East 566 651 43,000  Level FlightAware ADS-B
Sun 11:27:10 PM 43.3130 -70.0120 68° East 565 650 43,000  Level FlightAware ADS-B
Sun 11:28:08 PM 43.3670 -69.8200 69° East 563 648 43,000  Level FlightAware ADS-B
Sun 11:28:43 PM 43.4000 -69.7010 69° East 562 647 43,000  Level FlightAware ADS-B
Sun 11:29:13 PM 43.4250 -69.6120 69° East 559 643 43,000  Level FlightAware ADS-B
Sun 11:29:48 PM 43.4610 -69.4840 69° East 564 649 43,000  Level FlightAware ADS-B
Sun 11:30:26 PM 43.4960 -69.3580 69° East 565 650 43,000  Level FlightAware ADS-B
Sun 11:31:07 PM 43.5290 -69.2380 69° East 565 650 43,000  Level FlightAware ADS-B
Sun 11:31:45 PM 43.5590 -69.1290 69° East 565 650 43,000  Level FlightAware ADS-B
Sun 11:32:18 PM 43.6000 -68.9760 70° East 570 656 43,000  Level FlightAware ADS-B
Sun 11:32:53 PM 43.6290 -68.8710 69° East 571 657 43,000  Level FlightAware ADS-B
Sun 11:34:34 PM 43.7230 -68.5190 70° East 43,000  Level FlightAware ADS-B
Sun 11:34:59 PM 43.7460 -68.4340 69° East 570 656 43,000  Level FlightAware ADS-B
Sun 11:35:34 PM 43.7770 -68.3160 70° East 571 657 43,000  Level FlightAware ADS-B
Sun 11:36:09 PM 43.8100 -68.1930 70° East 572 658 43,000  Level FlightAware ADS-B
Sun 11:36:44 PM 43.8410 -68.0750 70° East 574 661 43,000  Level FlightAware ADS-B
Sun 11:37:19 PM 43.8730 -67.9500 70° East 571 657 43,000  Level FlightAware ADS-B
Sun 11:37:54 PM 43.9040 -67.8330 70° East 566 651 43,000  Level FlightAware ADS-B
Sun 11:38:29 PM 43.9350 -67.7110 71° East 567 652 43,000  Level FlightAware ADS-B
Sun 11:39:05 PM 43.9660 -67.5920 70° East 563 648 43,000  Level FlightAware ADS-B
Sun 11:39:39 PM 43.9960 -67.4740 70° East 561 646 43,000  Level FlightAware ADS-B
Sun 11:40:19 PM 44.0310 -67.3380 70° East 562 647 43,000  Level FlightAware ADS-B
Sun 11:40:54 PM 44.0620 -67.2160 70° East 565 650 43,000  Level FlightAware ADS-B
Sun 11:41:34 PM 44.0960 -67.0820 71° East 567 652 43,000  Level FlightAware ADS-B
Sun 11:42:04 PM 44.1220 -66.9770 71° East 563 648 43,000  Level FlightAware ADS-B
Sun 11:42:40 PM 44.1530 -66.8540 71° East 562 647 43,000  Level FlightAware ADS-B
Sun 11:43:19 PM 44.1860 -66.7190 71° East 560 644 43,000 86 Level FlightAware ADS-B
Sun 11:43:50 PM 44.2110 -66.6160 71° East 558 642 43,100 364 Climbing FlightAware ADS-B
Sun 11:44:25 PM 44.2400 -66.4990 71° East 553 636 43,400 522 Climbing FlightAware ADS-B
Sun 11:44:59 PM 44.2690 -66.3800 71° East 549 632 43,700 522 Climbing FlightAware ADS-B
Sun 11:45:34 PM 44.2970 -66.2650 71° East 544 626 44,000 514 Climbing FlightAware ADS-B
Sun 11:46:09 PM 44.3260 -66.1470 71° East 542 624 44,300 400 Climbing FlightAware ADS-B
Sun 11:46:49 PM 44.3580 -66.0130 71° East 542 624 44,500 338 Climbing FlightAware ADS-B
Sun 11:47:20 PM 44.3820 -65.9100 72° East 542 624 44,700 364 Climbing FlightAware ADS-B
Sun 11:47:55 PM 44.4090 -65.7990 71° East 539 620 44,900 257 Climbing FlightAware ADS-B
Sun 11:48:30 PM 44.4370 -65.6790 72° East 537 618 45,000 86 Climbing FlightAware ADS-B
Sun 11:49:05 PM 44.4630 -65.5710 71° East 533 613 45,000  Level FlightAware ADS-B
Sun 11:49:40 PM 44.4880 -65.4630 72° East 533 613 45,000  Level FlightAware ADS-B
Sun 11:50:15 PM 44.5170 -65.3380 72° East 531 611 45,000  Level FlightAware ADS-B
Sun 11:50:50 PM 44.5440 -65.2230 72° East 531 611 45,000  Level FlightAware ADS-B
Sun 11:51:25 PM 44.5700 -65.1080 72° East 531 611 45,000  Level FlightAware ADS-B
Sun 11:52:00 PM 44.5960 -64.9970 72° East 531 611 45,000  Level FlightAware ADS-B
Sun 11:52:35 PM 44.6210 -64.8840 73° East 531 611 45,000  Level FlightAware ADS-B
Sun 11:53:10 PM 44.6490 -64.7610 72° East 532 612 45,000  Level FlightAware ADS-B
Sun 11:53:46 PM 44.6740 -64.6530 72° East 532 612 45,000  Level FlightAware ADS-B
Sun 11:54:24 PM 44.7040 -64.5190 72° East 531 611 45,000  Level FlightAware ADS-B
Sun 11:54:55 PM 44.7250 -64.4220 73° East 527 606 45,000  Level FlightAware ADS-B
Sun 11:55:30 PM 44.7500 -64.3100 73° East 528 608 45,000  Level FlightAware ADS-B
Sun 11:56:06 PM 44.7760 -64.1930 73° East 528 608 45,000  Level FlightAware ADS-B
Sun 11:56:41 PM 44.8030 -64.0680 73° East 527 606 45,000  Level FlightAware ADS-B
Sun 11:57:13 PM 44.8260 -63.9650 72° East 526 605 45,000  Level FlightAware ADS-B
Sun 11:57:49 PM 44.8520 -63.8480 73° East 526 605 45,000  Level FlightAware ADS-B
Sun 11:58:24 PM 44.8760 -63.7350 73° East 526 605 45,000  Level FlightAware ADS-B
Sun 11:59:00 PM 44.9010 -63.6210 73° East 525 604 45,000  Level FlightAware ADS-B
Sun 11:59:35 PM 44.9250 -63.5080 73° East 525 604 45,000  Level FlightAware ADS-B
Mon 12:00:10 AM 44.9480 -63.4000 73° East 525 604 45,000  Level FlightAware ADS-B
Mon 12:00:48 AM 44.9730 -63.2790 74° East 525 604 45,000  Level FlightAware ADS-B
Mon 12:01:18 AM 44.9920 -63.1880 74° East 525 604 45,000  Level FlightAware ADS-B
Mon 12:01:54 AM 45.0200 -63.0530 74° East 524 603 45,000  Level FlightAware ADS-B
Mon 12:02:31 AM 45.0440 -62.9410 73° East 524 603 45,000  Level FlightAware ADS-B
Mon 12:03:11 AM 45.0690 -62.8180 74° East 524 603 45,000  Level FlightAware ADS-B
Mon 12:03:45 AM 45.0880 -62.7220 74° East 524 603 45,000  Level FlightAware ADS-B
Mon 12:04:31 AM 45.1140 -62.5930 74° East 524 603 45,000  Level FlightAware ADS-B
Mon 12:05:07 AM 45.1350 -62.4920 74° East 524 603 45,000  Level FlightAware ADS-B
Mon 12:05:43 AM 45.1550 -62.3910 74° East 524 603 45,000  Level FlightAware ADS-B
Mon 12:06:19 AM 45.1760 -62.2900 74° East 524 603 45,000  Level FlightAware ADS-B
Mon 12:06:55 AM 45.1960 -62.1890 74° East 524 603 45,000  Level FlightAware ADS-B
Mon 12:07:31 AM 45.2170 -62.0870 74° East 524 603 45,000  Level FlightAware ADS-B
Mon 12:08:07 AM 45.2370 -61.9860 74° East 524 603 45,000  Level FlightAware ADS-B
Mon 12:08:43 AM 45.2570 -61.8850 74° East 524 603 45,000  Level FlightAware ADS-B
Mon 12:09:20 AM 45.2780 -61.7810 74° East 524 603 45,000  Level FlightAware ADS-B
Mon 12:09:56 AM 45.3360 -61.4820 74° East 520 598 45,000  Level FlightAware ADS-B
Mon 12:10:33 AM 45.3620 -61.3440 75° East 521 600 45,000  Level FlightAware ADS-B
Mon 12:11:11 AM 45.3860 -61.2200 75° East 522 601 45,000  Level FlightAware ADS-B
Mon 12:11:46 AM 45.4080 -61.1040 75° East 521 600 45,000  Level FlightAware ADS-B
Mon 12:12:19 AM 45.4290 -60.9930 75° East 522 601 45,000  Level FlightAware ADS-B
Mon 12:12:55 AM 45.4510 -60.8760 75° East 522 601 45,000  Level FlightAware ADS-B
Mon 12:13:31 AM 45.4730 -60.7560 75° East 522 601 45,000  Level FlightAware ADS-B
Mon 12:14:07 AM 45.4950 -60.6370 75° East 521 600 45,000  Level FlightAware ADS-B
Mon 12:14:39 AM 45.5150 -60.5290 75° East 520 598 45,000  Level FlightAware ADS-B
Mon 12:15:17 AM 45.5380 -60.4040 75° East 520 598 45,000  Level FlightAware ADS-B
Mon 12:15:49 AM 45.5570 -60.2990 75° East 518 596 45,000  Level FlightAware ADS-B
Mon 12:16:25 AM 45.5780 -60.1790 76° East 520 598 45,000  Level FlightAware ADS-B
Mon 12:16:57 AM 45.5970 -60.0730 76° East 519 597 45,000  Level FlightAware ADS-B
Mon 12:17:37 AM 45.6200 -59.9420 76° East 518 596 45,000  Level FlightAware ADS-B
Mon 12:18:09 AM 45.6390 -59.8360 76° East 518 596 45,000  Level FlightAware ADS-B
Mon 12:18:45 AM 45.6600 -59.7170 76° East 518 596 45,000  Level FlightAware ADS-B
Mon 12:19:23 AM 45.6820 -59.5910 76° East 518 596 45,000  Level FlightAware ADS-B
Mon 12:19:55 AM 45.7010 -59.4840 76° East 518 596 45,000  Level FlightAware ADS-B
Mon 12:20:31 AM 45.7210 -59.3660 76° East 517 595 45,000  Level FlightAware ADS-B
Mon 12:21:07 AM 45.7420 -59.2460 76° East 517 595 45,000  Level FlightAware ADS-B
Mon 12:21:43 AM 45.7620 -59.1250 77° East 517 595 45,000  Level FlightAware ADS-B
Mon 12:22:15 AM 45.7800 -59.0210 76° East 517 595 45,000  Level FlightAware ADS-B
Mon 12:22:51 AM 45.8000 -58.8980 77° East 518 596 45,000  Level FlightAware ADS-B
Mon 12:23:27 AM 45.8190 -58.7830 77° East 517 595 45,000  Level FlightAware ADS-B
Mon 12:23:59 AM 45.8370 -58.6750 77° East 517 595 45,000  Level FlightAware ADS-B
Mon 12:24:35 AM 45.8570 -58.5540 77° East 517 595 45,000  Level FlightAware ADS-B
Mon 12:25:12 AM 45.8770 -58.4330 77° East 517 595 45,000  Level FlightAware ADS-B
Mon 12:25:47 AM 45.8960 -58.3130 77° East 518 596 45,000  Level FlightAware ADS-B
Mon 12:26:19 AM 45.9140 -58.2060 76° East 519 597 45,000  Level FlightAware ADS-B
Mon 12:26:55 AM 45.9330 -58.0850 77° East 519 597 45,000  Level FlightAware ADS-B
Mon 12:27:33 AM 45.9530 -57.9600 77° East 519 597 45,000  Level FlightAware ADS-B
Mon 12:28:05 AM 45.9700 -57.8510 77° East 519 597 45,000  Level FlightAware ADS-B
Mon 12:28:39 AM 45.9880 -57.7380 77° East 519 597 45,000  Level FlightAware ADS-B
Mon 12:29:17 AM 46.0080 -57.6090 77° East 519 597 45,000  Level FlightAware ADS-B
Mon 12:29:49 AM 46.0240 -57.5010 78° East 519 597 45,000  Level FlightAware ADS-B
Mon 12:30:21 AM 46.0400 -57.3970 77° East 519 597 45,000  Level FlightAware ADS-B
Mon 12:31:00 AM 46.0600 -57.2640 78° East 517 595 45,000  Level FlightAware ADS-B
Mon 12:31:34 AM 46.0770 -57.1540 77° East 516 594 45,000  Level FlightAware ADS-B
Mon 12:32:09 AM 46.0950 -57.0340 78° East 516 594 45,000  Level FlightAware ADS-B
Mon 12:32:58 AM 46.1200 -56.8680 78° East 518 596 45,000  Level FlightAware ADS-B
Mon 12:33:34 AM 46.1360 -56.7590 78° East 518 596 45,000  Level FlightAware ADS-B
Mon 12:34:09 AM 46.1540 -56.6340 78° East 519 597 45,000  Level FlightAware ADS-B
Mon 12:34:44 AM 46.1720 -56.5110 78° East 518 596 45,000  Level FlightAware ADS-B
Mon 12:35:19 AM 46.1880 -56.4080 77° East 517 595 45,000  Level FlightAware ADS-B
Mon 12:35:54 AM 46.2060 -56.2930 77° East 517 595 45,000  Level FlightAware ADS-B
Mon 12:36:34 AM 46.2290 -56.1430 77° East 518 596 45,000  Level FlightAware ADS-B
Mon 12:37:09 AM 46.2470 -56.0250 78° East 518 596 45,000  Level FlightAware ADS-B
Mon 12:37:49 AM 46.2680 -55.8900 77° East 518 596 45,000  Level FlightAware ADS-B
Mon 12:38:19 AM 46.2830 -55.7890 78° East 518 596 45,000  Level FlightAware ADS-B
Mon 12:38:54 AM 46.3000 -55.6780 77° East 518 596 45,000  Level FlightAware ADS-B
Mon 12:39:32 AM 46.3200 -55.5410 78° East 517 595 45,000  Level FlightAware ADS-B
Mon 12:40:08 AM 46.3380 -55.4200 78° East 517 595 45,000  Level FlightAware ADS-B
Mon 12:40:40 AM 46.3540 -55.3120 78° East 518 596 45,000  Level FlightAware ADS-B
Mon 12:41:16 AM 46.3720 -55.1880 78° East 518 596 45,000  Level FlightAware ADS-B
Mon 12:41:52 AM 46.3900 -55.0660 78° East 518 596 45,000  Level FlightAware ADS-B
Mon 12:42:24 AM 46.4050 -54.9590 78° East 519 597 45,000  Level FlightAware ADS-B
Mon 12:43:00 AM 46.4230 -54.8380 78° East 520 598 45,000  Level FlightAware ADS-B
Mon 12:43:36 AM 46.4400 -54.7180 78° East 520 598 45,000  Level FlightAware ADS-B
Mon 12:44:14 AM 46.4580 -54.5860 79° East 520 598 45,000  Level FlightAware ADS-B
Mon 12:44:46 AM 46.4730 -54.4750 79° East 521 600 45,000  Level FlightAware ADS-B
Mon 12:45:22 AM 46.4900 -54.3530 79° East 521 600 45,000  Level FlightAware ADS-B
Mon 12:45:54 AM 46.5050 -54.2430 79° East 521 600 45,000  Level FlightAware ADS-B
Mon 12:46:28 AM 46.5210 -54.1290 78° East 521 600 45,000  Level FlightAware ADS-B
Mon 12:47:08 AM 46.5400 -53.9890 79° East 522 601 45,000  Level FlightAware ADS-B
Mon 12:47:44 AM 46.5560 -53.8660 79° East 523 602 45,000  Level FlightAware ADS-B
Mon 12:48:16 AM 46.5710 -53.7530 79° East 524 603 45,000  Level FlightAware ADS-B
Mon 12:48:52 AM 46.5870 -53.6310 79° East 525 604 45,000  Level FlightAware ADS-B
Mon 12:49:28 AM 46.6030 -53.5060 79° East 515 593 45,000  Level FlightAware ADS-B
Mon 12:50:04 AM 46.6190 -53.3860 79° East 513 590 45,000  Level FlightAware ADS-B
Mon 12:50:36 AM 46.6320 -53.2770 80° East 515 593 45,000  Level FlightAware ADS-B
Mon 12:51:12 AM 46.6480 -53.1530 79° East 515 593 45,000  Level FlightAware ADS-B
Mon 12:51:48 AM 46.6640 -53.0310 79° East 516 594 45,000  Level FlightAware ADS-B
Mon 12:52:20 AM 46.6770 -52.9240 80° East 517 595 45,000  Level FlightAware ADS-B
Mon 12:52:56 AM 46.6920 -52.7990 80° East 520 598 45,000  Level FlightAware ADS-B
Mon 12:53:34 AM 46.7080 -52.6670 80° East 522 601 45,000  Level FlightAware ADS-B
Mon 12:54:06 AM 46.7210 -52.5620 80° East 524 603 45,000  Level FlightAware ADS-B
Mon 12:54:42 AM 46.7370 -52.4310 80° East 527 606 45,000  Level FlightAware ADS-B
Mon 12:55:18 AM 46.7520 -52.3050 80° East 529 609 45,000  Level FlightAware ADS-B
Mon 12:55:52 AM 46.7660 -52.1860 80° East 530 610 45,000  Level FlightAware ADS-B
Mon 12:56:28 AM 46.7800 -52.0620 81° East 527 606 45,000  Level FlightAware ADS-B
Mon 12:57:00 AM 46.7930 -51.9500 80° East 526 605 45,000  Level FlightAware ADS-B
Mon 12:57:36 AM 46.8080 -51.8240 80° East 527 606 45,000  Level FlightAware ADS-B
Mon 12:58:12 AM 46.8220 -51.6960 81° East 525 604 45,000  Level FlightAware ADS-B
Mon 12:58:46 AM 46.8350 -51.5790 81° East 523 602 45,000  Level FlightAware ADS-B
Mon 12:59:22 AM 46.8490 -51.4530 81° East 522 601 45,000  Level FlightAware ADS-B
Mon 12:59:58 AM 46.8630 -51.3270 81° East 521 600 45,000  Level FlightAware ADS-B
Mon 01:00:28 AM 46.8740 -51.2290 81° East 517 595 45,000  Level FlightAware ADS-B
Mon 01:01:09 AM 46.8890 -51.0900 81° East 518 596 45,000  Level FlightAware ADS-B
Mon 01:01:38 AM 46.9000 -50.9830 81° East 517 595 45,000  Level FlightAware ADS-B
Mon 01:02:14 AM 46.9130 -50.8620 81° East 517 595 45,000  Level FlightAware ADS-B
Mon 01:02:54 AM 46.9270 -50.7270 81° East 516 594 45,000  Level FlightAware ADS-B
Mon 01:03:24 AM 46.9380 -50.6210 81° East 516 594 45,000  Level FlightAware ADS-B
Mon 01:04:04 AM 46.9520 -50.4860 81° East 513 590 45,000  Level FlightAware ADS-B
Mon 01:04:39 AM 46.9630 -50.3710 82° East 514 592 45,000  Level FlightAware ADS-B
Mon 01:05:19 AM 46.9760 -50.2540 81° East 514 592 45,000  Level FlightAware ADS-B
Mon 01:05:55 AM 46.9870 -50.1480 81° East 514 592 45,000  Level FlightAware ADS-B
Mon 01:06:31 AM 46.9990 -50.0430 80° East 514 592 45,000  Level FlightAware ADS-B
Mon 01:07:07 AM 47.0100 -49.9380 81° East 514 592 45,000  Level FlightAware ADS-B
Mon 01:07:43 AM 47.0210 -49.8320 81° East 514 592 45,000  Level FlightAware ADS-B
Mon 01:08:20 AM 47.0330 -49.7240 81° East 514 592 45,000  Level FlightAware ADS-B
Mon 01:08:56 AM 47.0450 -49.6180 81° East 514 592 45,000  Level FlightAware ADS-B
Mon 01:09:33 AM 47.0560 -49.5100 81° East 514 592 45,000  Level FlightAware ADS-B
Mon 01:10:09 AM 47.0680 -49.4040 81° East 514 592 45,000  Level FlightAware ADS-B
Mon 01:10:45 AM 47.0790 -49.2990 81° East 514 592 45,000  Level FlightAware ADS-B
Mon 01:11:21 AM 47.0900 -49.1930 81° East 514 592 45,000  Level FlightAware ADS-B
Mon 01:11:57 AM 47.1020 -49.0880 80° East 514 592 45,000  Level FlightAware ADS-B
Mon 01:12:33 AM 47.1130 -48.9820 81° East 514 592 45,000  Level FlightAware ADS-B
Mon 01:13:09 AM 47.1240 -48.8760 81° East 514 592 45,000  Level FlightAware ADS-B
Mon 01:13:45 AM 47.1360 -48.7710 80° East 514 592 45,000  Level FlightAware ADS-B
Mon 01:14:23 AM 47.1480 -48.6590 81° East 514 592 45,000  Level FlightAware ADS-B
Mon 01:14:54 AM 47.3833 -48.2667 81° East 520 598 45,000  Level Gander Center
Mon 01:15:54 AM 47.4500 -48.0500 65° Northeast 520 598 45,000  Level Gander Center
Mon 01:16:54 AM 47.4833 -47.8333 77° East 530 610 45,000  Level Gander Center
Mon 01:17:54 AM 47.5333 -47.6333 70° East 530 610 45,000  Level Gander Center
Mon 01:18:54 AM 47.5667 -47.4500 75° East 520 598 45,000  Level Gander Center
Mon 01:19:54 AM 47.6333 -47.2333 65° Northeast 520 598 45,000  Level Gander Center
Mon 01:20:54 AM 47.6667 -47.0333 76° East 520 598 45,000  Level Gander Center
Mon 01:21:54 AM 47.7167 -46.8333 70° East 530 610 45,000  Level Gander Center
Mon 01:22:54 AM 47.7500 -46.6167 77° East 520 598 45,000  Level Gander Center
Mon 01:23:54 AM 47.8000 -46.4500 66° East 520 598 45,000  Level Gander Center
Mon 01:25:00 AM 47.8498 -46.2241 72° East  Level FlightAware Approximate
Mon 01:32:00 AM 48.1563 -44.7768 72° East  Level FlightAware Approximate
Mon 01:33:00 AM 48.1986 -44.5687 73° East  Level FlightAware Approximate
Mon 01:34:00 AM 48.2405 -44.3602 73° East  Level FlightAware Approximate
Mon 01:35:00 AM 48.2821 -44.1514 73° East  Level FlightAware Approximate
Mon 01:36:00 AM 48.3232 -43.9422 73° East  Level FlightAware Approximate
Mon 01:37:00 AM 48.3640 -43.7327 74° East  Level FlightAware Approximate
Mon 01:38:00 AM 48.4044 -43.5228 74° East  Level FlightAware Approximate
Mon 01:39:00 AM 48.4445 -43.3127 74° East  Level FlightAware Approximate
Mon 01:40:00 AM 48.4828 -43.1016 75° East  Level FlightAware Approximate
Mon 01:41:00 AM 48.5206 -42.8901 75° East  Level FlightAware Approximate
Mon 01:42:00 AM 48.5580 -42.6784 75° East  Level FlightAware Approximate
Mon 01:43:00 AM 48.5950 -42.4663 75° East  Level FlightAware Approximate
Mon 01:44:00 AM 48.6316 -42.2540 75° East  Level FlightAware Approximate
Mon 01:45:00 AM 48.6678 -42.0413 75° East  Level FlightAware Approximate
Mon 01:46:00 AM 48.7037 -41.8283 76° East  Level FlightAware Approximate
Mon 01:47:00 AM 48.7393 -41.6151 76° East  Level FlightAware Approximate
Mon 01:48:00 AM 48.7751 -41.4018 76° East  Level FlightAware Approximate
Mon 01:49:00 AM 48.8106 -41.1883 76° East  Level FlightAware Approximate
Mon 01:50:00 AM 48.8457 -40.9744 76° East  Level FlightAware Approximate
Mon 01:51:00 AM 48.8804 -40.7602 76° East  Level FlightAware Approximate
Mon 01:52:00 AM 48.9147 -40.5457 76° East  Level FlightAware Approximate
Mon 01:53:00 AM 48.9486 -40.3310 76° East  Level FlightAware Approximate
Mon 01:54:00 AM 48.9821 -40.1160 77° East  Level FlightAware Approximate
Mon 01:55:00 AM 49.0145 -39.9004 77° East  Level FlightAware Approximate
Mon 01:56:00 AM 49.0456 -39.6842 78° East  Level FlightAware Approximate
Mon 01:57:00 AM 49.0763 -39.4678 78° East  Level FlightAware Approximate
Mon 01:58:00 AM 49.1066 -39.2511 78° East  Level FlightAware Approximate
Mon 01:59:00 AM 49.1365 -39.0341 78° East  Level FlightAware Approximate
Mon 02:00:00 AM 49.1660 -38.8169 78° East  Level FlightAware Approximate
Mon 02:01:00 AM 49.1951 -38.5994 78° East  Level FlightAware Approximate
Mon 02:02:00 AM 49.2238 -38.3817 79° East  Level FlightAware Approximate
Mon 02:03:00 AM 49.2520 -38.1637 79° East  Level FlightAware Approximate
Mon 02:04:00 AM 49.2799 -37.9455 79° East  Level FlightAware Approximate
Mon 02:05:00 AM 49.3073 -37.7270 79° East  Level FlightAware Approximate
Mon 02:06:00 AM 49.3343 -37.5083 79° East  Level FlightAware Approximate
Mon 02:07:00 AM 49.3610 -37.2894 79° East  Level FlightAware Approximate
Mon 02:08:00 AM 49.3871 -37.0702 80° East  Level FlightAware Approximate
Mon 02:09:00 AM 49.4129 -36.8507 80° East  Level FlightAware Approximate
Mon 02:10:00 AM 49.4383 -36.6311 80° East  Level FlightAware Approximate
Mon 02:11:00 AM 49.4633 -36.4112 80° East  Level FlightAware Approximate
Mon 02:12:00 AM 49.4878 -36.1911 80° East  Level FlightAware Approximate
Mon 02:13:00 AM 49.5119 -35.9708 80° East  Level FlightAware Approximate
Mon 02:14:00 AM 49.5356 -35.7503 81° East  Level FlightAware Approximate
Mon 02:15:00 AM 49.5589 -35.5295 81° East  Level FlightAware Approximate
Mon 02:16:00 AM 49.5818 -35.3086 81° East  Level FlightAware Approximate
Mon 02:17:00 AM 49.6042 -35.0874 81° East  Level FlightAware Approximate
Mon 02:18:00 AM 49.6262 -34.8661 81° East  Level FlightAware Approximate
Mon 02:19:00 AM 49.6478 -34.6445 81° East  Level FlightAware Approximate
Mon 02:20:00 AM 49.6690 -34.4228 82° East  Level FlightAware Approximate
Mon 02:21:00 AM 49.6897 -34.2008 82° East  Level FlightAware Approximate
Mon 02:22:00 AM 49.7101 -33.9787 82° East  Level FlightAware Approximate
Mon 02:23:00 AM 49.7300 -33.7564 82° East  Level FlightAware Approximate
Mon 02:24:00 AM 49.7494 -33.5339 82° East  Level FlightAware Approximate
Mon 02:25:00 AM 49.7685 -33.3112 82° East  Level FlightAware Approximate
Mon 02:26:00 AM 49.7871 -33.0884 83° East  Level FlightAware Approximate
Mon 02:27:00 AM 49.8053 -32.8654 83° East  Level FlightAware Approximate
Mon 02:28:00 AM 49.8231 -32.6422 83° East  Level FlightAware Approximate
Mon 02:29:00 AM 49.8404 -32.4189 83° East  Level FlightAware Approximate
Mon 02:30:00 AM 49.8573 -32.1954 83° East  Level FlightAware Approximate
Mon 02:31:00 AM 49.8738 -31.9717 83° East  Level FlightAware Approximate
Mon 02:32:00 AM 49.8898 -31.7479 84° East  Level FlightAware Approximate
Mon 02:33:00 AM 49.9054 -31.5240 84° East  Level FlightAware Approximate
Mon 02:34:00 AM 49.9206 -31.2999 84° East  Level FlightAware Approximate
Mon 02:35:00 AM 49.9354 -31.0756 84° East  Level FlightAware Approximate
Mon 02:36:00 AM 49.9497 -30.8513 84° East  Level FlightAware Approximate
Mon 02:37:00 AM 49.9636 -30.6268 84° East  Level FlightAware Approximate
Mon 02:38:00 AM 49.9770 -30.4021 85° East  Level FlightAware Approximate
Mon 02:39:00 AM 49.9900 -30.1774 85° East  Level FlightAware Approximate
Mon 02:40:00 AM 50.0067 -29.9535 77° East  Level FlightAware Approximate
Mon 02:41:00 AM 50.0379 -29.7329 77° East  Level FlightAware Approximate
Mon 02:42:00 AM 50.0688 -29.5121 78° East  Level FlightAware Approximate
Mon 02:43:00 AM 50.0993 -29.2910 78° East  Level FlightAware Approximate
Mon 02:44:00 AM 50.1293 -29.0696 78° East  Level FlightAware Approximate
Mon 02:45:00 AM 50.1589 -28.8480 78° East  Level FlightAware Approximate
Mon 02:46:00 AM 50.1881 -28.6261 78° East  Level FlightAware Approximate
Mon 02:47:00 AM 50.2169 -28.4039 78° East  Level FlightAware Approximate
Mon 02:48:00 AM 50.2452 -28.1814 79° East  Level FlightAware Approximate
Mon 02:49:00 AM 50.2731 -27.9587 79° East  Level FlightAware Approximate
Mon 02:50:00 AM 50.3006 -27.7357 79° East  Level FlightAware Approximate
Mon 02:51:00 AM 50.3277 -27.5125 79° East  Level FlightAware Approximate
Mon 02:52:00 AM 50.3543 -27.2890 79° East  Level FlightAware Approximate
Mon 02:53:00 AM 50.3805 -27.0652 80° East  Level FlightAware Approximate
Mon 02:54:00 AM 50.4063 -26.8412 80° East  Level FlightAware Approximate
Mon 02:55:00 AM 50.4316 -26.6170 80° East  Level FlightAware Approximate
Mon 02:56:00 AM 50.4565 -26.3925 80° East  Level FlightAware Approximate
Mon 02:57:00 AM 50.4815 -26.1680 80° East  Level FlightAware Approximate
Mon 02:58:00 AM 50.5063 -25.9433 80° East  Level FlightAware Approximate
Mon 02:59:00 AM 50.5308 -25.7183 80° East  Level FlightAware Approximate
Mon 03:00:00 AM 50.5547 -25.4931 80° East  Level FlightAware Approximate
Mon 03:01:00 AM 50.5783 -25.2677 81° East  Level FlightAware Approximate
Mon 03:02:00 AM 50.6014 -25.0421 81° East  Level FlightAware Approximate
Mon 03:03:00 AM 50.6241 -24.8162 81° East  Level FlightAware Approximate
Mon 03:04:00 AM 50.6463 -24.5902 81° East  Level FlightAware Approximate
Mon 03:05:00 AM 50.6681 -24.3639 81° East  Level FlightAware Approximate
Mon 03:06:00 AM 50.6895 -24.1374 81° East  Level FlightAware Approximate
Mon 03:07:00 AM 50.7104 -23.9107 82° East  Level FlightAware Approximate
Mon 03:08:00 AM 50.7309 -23.6838 82° East  Level FlightAware Approximate
Mon 03:09:00 AM 50.7510 -23.4567 82° East  Level FlightAware Approximate
Mon 03:10:00 AM 50.7706 -23.2294 82° East  Level FlightAware Approximate
Mon 03:11:00 AM 50.7897 -23.0019 82° East  Level FlightAware Approximate
Mon 03:12:00 AM 50.8084 -22.7743 82° East  Level FlightAware Approximate
Mon 03:13:00 AM 50.8267 -22.5464 83° East  Level FlightAware Approximate
Mon 03:14:00 AM 50.8446 -22.3184 83° East  Level FlightAware Approximate
Mon 03:15:00 AM 50.8619 -22.0902 83° East  Level FlightAware Approximate
Mon 03:16:00 AM 50.8789 -21.8619 83° East  Level FlightAware Approximate
Mon 03:17:00 AM 50.8954 -21.6334 83° East  Level FlightAware Approximate
Mon 03:18:00 AM 50.9114 -21.4047 84° East  Level FlightAware Approximate
Mon 03:19:00 AM 50.9270 -21.1759 84° East  Level FlightAware Approximate
Mon 03:20:00 AM 50.9422 -20.9469 84° East  Level FlightAware Approximate
Mon 03:21:00 AM 50.9569 -20.7177 84° East  Level FlightAware Approximate
Mon 03:22:00 AM 50.9711 -20.4885 84° East  Level FlightAware Approximate
Mon 03:23:00 AM 50.9850 -20.2591 84° East  Level FlightAware Approximate
Mon 03:24:00 AM 50.9983 -20.0295 85° East  Level FlightAware Approximate
Mon 03:25:00 AM 50.9855 -19.8004 97° East  Level FlightAware Approximate
Mon 03:26:00 AM 50.9684 -19.5716 97° East  Level FlightAware Approximate
Mon 03:27:00 AM 50.9508 -19.3429 97° East  Level FlightAware Approximate
Mon 03:28:00 AM 50.9328 -19.1144 97° East  Level FlightAware Approximate
Mon 03:29:00 AM 50.9144 -18.8860 97° East  Level FlightAware Approximate
Mon 03:30:00 AM 50.8955 -18.6579 97° East  Level FlightAware Approximate
Mon 03:31:00 AM 50.8762 -18.4300 98° East  Level FlightAware Approximate
Mon 03:32:00 AM 50.8565 -18.2022 98° East  Level FlightAware Approximate
Mon 03:33:00 AM 50.8363 -17.9746 98° East  Level FlightAware Approximate
Mon 03:34:00 AM 50.8156 -17.7472 98° East  Level FlightAware Approximate
Mon 03:35:00 AM 50.7945 -17.5201 98° East  Level FlightAware Approximate
Mon 03:36:00 AM 50.7730 -17.2931 98° East  Level FlightAware Approximate
Mon 03:37:00 AM 50.7510 -17.0664 99° East  Level FlightAware Approximate
Mon 03:38:00 AM 50.7286 -16.8398 99° East  Level FlightAware Approximate
Mon 03:39:00 AM 50.7057 -16.6135 99° East  Level FlightAware Approximate
Mon 03:40:00 AM 50.6825 -16.3874 99° East  Level FlightAware Approximate
Mon 03:41:00 AM 50.6587 -16.1616 99° East  Level FlightAware Approximate
Mon 03:42:00 AM 50.6346 -15.9359 99° East  Level FlightAware Approximate
Mon 03:43:00 AM 50.6100 -15.7105 100° East  Level FlightAware Approximate
Mon 03:44:00 AM 50.5850 -15.4854 100° East  Level FlightAware Approximate
Mon 03:45:00 AM 50.5595 -15.2604 100° East  Level FlightAware Approximate
Mon 03:46:00 AM 50.5336 -15.0358 100° East  Level FlightAware Approximate
Mon 03:47:00 AM 50.5073 -14.8113 100° East  Level FlightAware Approximate
Mon 03:48:00 AM 50.4818 -14.5868 100° East  Level FlightAware Approximate
Mon 03:49:00 AM 50.4564 -14.3623 100° East  Level FlightAware Approximate
Mon 03:50:00 AM 50.4306 -14.1381 100° East  Level FlightAware Approximate
Mon 03:51:00 AM 50.4043 -13.9142 100° East  Level FlightAware Approximate
Mon 03:52:00 AM 50.3776 -13.6904 101° East  Level FlightAware Approximate
Mon 03:53:00 AM 50.3491 -13.4674 102° East  Level FlightAware Approximate
Mon 03:54:00 AM 50.3193 -13.2450 102° East  Level FlightAware Approximate
Mon 03:55:00 AM 50.2890 -13.0228 102° East  Level FlightAware Approximate
Mon 03:55:43 AM 50.3510 -11.8230 102° East 552 635 45,000  Level FlightAware ADS-B
Mon 03:56:00 AM 50.2583 -12.8009 102° East  Level FlightAware Approximate
Mon 03:56:19 AM 50.3210 -11.6880 109° East 550 633 45,000  Level FlightAware ADS-B
Mon 03:56:51 AM 50.2950 -11.5680 109° East 550 633 45,000  Level FlightAware ADS-B
Mon 03:57:24 AM 50.2700 -11.4580 110° East 550 633 45,000  Level FlightAware ADS-B
Mon 03:58:00 AM 50.2450 -11.3430 109° East 550 633 45,000  Level FlightAware ADS-B
Mon 03:58:35 AM 50.2070 -11.1780 110° East 552 635 45,000  Level FlightAware ADS-B
Mon 03:59:13 AM 50.1740 -11.0330 110° East 554 638 45,000  Level FlightAware ADS-B
Mon 03:59:53 AM 50.1390 -10.8840 110° East 554 638 45,000  Level FlightAware ADS-B
Mon 04:00:29 AM 50.1090 -10.7530 110° East 554 638 45,000  Level FlightAware ADS-B
Mon 04:01:05 AM 50.0770 -10.6170 110° East 554 638 45,000  Level FlightAware ADS-B
Mon 04:01:41 AM 50.0460 -10.4820 110° East 551 634 45,000  Level FlightAware ADS-B
Mon 04:02:13 AM 50.0180 -10.3640 110° East 552 635 45,000  Level FlightAware ADS-B
Mon 04:02:49 AM 49.9870 -10.2320 110° East 549 632 45,000  Level FlightAware ADS-B
Mon 04:03:23 AM 49.9560 -10.1040 111° Southeast 549 632 45,000  Level FlightAware ADS-B
Mon 04:03:59 AM 49.9240 -9.9700 110° East 549 632 45,000  Level FlightAware ADS-B
Mon 04:04:35 AM 49.8920 -9.8390 111° Southeast 547 629 45,000  Level FlightAware ADS-B
Mon 04:05:09 AM 49.8620 -9.7130 110° East 549 632 45,000  Level FlightAware ADS-B
Mon 04:05:44 AM 49.8310 -9.5880 111° Southeast 547 629 45,000  Level FlightAware ADS-B
Mon 04:06:21 AM 49.7980 -9.4530 111° Southeast 547 629 45,000  Level FlightAware ADS-B
Mon 04:06:57 AM 49.7650 -9.3210 111° Southeast 546 628 45,000  Level FlightAware ADS-B
Mon 04:07:29 AM 49.7360 -9.2050 111° Southeast 544 626 45,000  Level FlightAware ADS-B
Mon 04:08:06 AM 49.7060 -9.0840 111° Southeast 543 625 45,000  Level FlightAware ADS-B
Mon 04:08:31 AM 49.6810 -8.9840 111° Southeast 541 623 45,000  Level FlightAware ADS-B
Mon 04:09:02 AM 49.6488 -8.8652 111° Southeast 490 564 45,000  Level FlightAware UK
Mon 04:09:10 AM 49.6480 -8.8520 111° Southeast 541 623 45,000  Level FlightAware ADS-B
Mon 04:09:43 AM 49.6190 -8.7370 111° Southeast 541 623 45,000  Level FlightAware ADS-B
Mon 04:10:18 AM 49.5840 -8.6000 111° Southeast 540 621 45,000  Level FlightAware ADS-B
Mon 04:10:53 AM 49.5520 -8.4750 111° Southeast 541 623 45,000  Level FlightAware ADS-B
Mon 04:11:23 AM 49.5230 -8.3630 112° Southeast 543 625 45,000  Level FlightAware ADS-B
Mon 04:12:02 AM 49.4866 -8.2218 112° Southeast 490 564 45,000  Level FlightAware UK
Mon 04:12:03 AM 49.4860 -8.2210 112° Southeast 543 625 45,000  Level FlightAware ADS-B
Mon 04:12:39 AM 49.4520 -8.0920 112° Southeast 542 624 45,000  Level FlightAware ADS-B
Mon 04:13:15 AM 49.4190 -7.9640 112° Southeast 544 626 45,000  Level FlightAware ADS-B
Mon 04:13:47 AM 49.3880 -7.8470 112° Southeast 545 627 45,000  Level FlightAware ADS-B
Mon 04:14:23 AM 49.3540 -7.7200 112° Southeast 545 627 45,000  Level FlightAware ADS-B
Mon 04:14:58 AM 49.3210 -7.5970 112° Southeast 546 628 45,000  Level FlightAware ADS-B
Mon 04:15:31 AM 49.2900 -7.4810 112° Southeast 546 628 45,000  Level FlightAware ADS-B
Mon 04:15:32 AM 49.2879 -7.4716 112° Southeast 490 564 45,000  Level FlightAware UK
Mon 04:16:02 AM 49.2571 -7.3656 112° Southeast 490 564 45,000  Level FlightAware UK
Mon 04:16:07 AM 49.2500 -7.3520 112° Southeast 545 627 45,000  Level FlightAware ADS-B
Mon 04:16:43 AM 49.2110 -7.2290 116° Southeast 546 628 45,000  Level FlightAware ADS-B
Mon 04:17:19 AM 49.1710 -7.1030 116° Southeast 546 628 45,000  Level FlightAware ADS-B
Mon 04:17:51 AM 49.1350 -6.9920 116° Southeast 545 627 45,000  Level FlightAware ADS-B
Mon 04:18:29 AM 49.0930 -6.8610 116° Southeast 543 625 45,000  Level FlightAware ADS-B
Mon 04:19:05 AM 49.0540 -6.7430 117° Southeast 542 624 45,000  Level FlightAware ADS-B
Mon 04:19:37 AM 49.0180 -6.6300 116° Southeast 542 624 45,000  Level FlightAware ADS-B
Mon 04:20:09 AM 48.9818 -6.5208 116° Southeast 490 564 45,000  Level FlightAware UK
Mon 04:20:14 AM 48.9770 -6.5060 116° Southeast 542 624 45,000  Level FlightAware ADS-B
Mon 04:20:45 AM 48.9430 -6.4030 117° Southeast 542 624 45,000  Level FlightAware ADS-B
Mon 04:21:21 AM 48.9030 -6.2800 116° Southeast 541 623 45,000  Level FlightAware ADS-B
Mon 04:21:57 AM 48.8610 -6.1550 117° Southeast 544 626 45,000  Level FlightAware ADS-B
Mon 04:22:33 AM 48.8200 -6.0330 117° Southeast 542 624 45,000  Level FlightAware ADS-B
Mon 04:23:09 AM 48.7792 -5.9105 117° Southeast 490 564 45,000  Level FlightAware UK
Mon 04:23:09 AM 48.7790 -5.9110 117° Southeast 542 624 45,000  Level FlightAware ADS-B
Mon 04:23:39 AM 48.7450 -5.8086 117° Southeast 490 564 45,000  Level FlightAware UK
Mon 04:23:41 AM 48.7430 -5.8020 117° Southeast 543 625 45,000  Level FlightAware ADS-B
Mon 04:24:17 AM 48.7020 -5.6810 117° Southeast 546 628 45,000  Level FlightAware ADS-B
Mon 04:24:53 AM 48.6600 -5.5570 117° Southeast 547 629 45,000  Level FlightAware ADS-B
Mon 04:25:27 AM 48.6200 -5.4410 118° Southeast 549 632 45,000  Level FlightAware ADS-B
Mon 04:26:03 AM 48.5790 -5.3220 117° Southeast 549 632 45,000  Level FlightAware ADS-B
Mon 04:26:39 AM 48.5366 -5.1990 117° Southeast 492 566 45,000  Level FlightAware UK
Mon 04:26:39 AM 48.5370 -5.2000 117° Southeast 551 634 45,000  Level FlightAware ADS-B
Mon 04:27:09 AM 48.5013 -5.0970 117° Southeast 492 566 45,000  Level FlightAware UK
Mon 04:27:11 AM 48.4990 -5.0890 117° Southeast 549 632 45,000  Level FlightAware ADS-B
Mon 04:27:47 AM 48.4560 -4.9670 118° Southeast 549 632 45,000  Level FlightAware ADS-B
Mon 04:28:23 AM 48.4140 -4.8470 118° Southeast 551 634 45,000  Level FlightAware ADS-B
Mon 04:28:59 AM 48.3720 -4.7260 118° Southeast 550 633 45,000  Level FlightAware ADS-B
Mon 04:29:31 AM 48.3340 -4.6190 118° Southeast 550 633 45,000  Level FlightAware ADS-B
Mon 04:30:07 AM 48.2900 -4.4960 118° Southeast 550 633 45,000  Level FlightAware ADS-B
Mon 04:30:09 AM 48.2878 -4.4882 118° Southeast 490 564 45,000  Level FlightAware UK
Mon 04:30:41 AM 48.2500 -4.3810 118° Southeast 551 634 45,000  Level FlightAware ADS-B
Mon 04:31:18 AM 48.2060 -4.2590 118° Southeast 551 634 45,000  Level FlightAware ADS-B
Mon 04:31:54 AM 48.1620 -4.1360 118° Southeast 548 631 45,000  Level FlightAware ADS-B
Mon 04:32:28 AM 48.1220 -4.0250 118° Southeast 549 632 45,000  Level FlightAware ADS-B
Mon 04:33:04 AM 48.0780 -3.9050 119° Southeast 550 633 45,000  Level FlightAware ADS-B
Mon 04:33:36 AM 48.0380 -3.7960 119° Southeast 549 632 45,000  Level FlightAware ADS-B
Mon 04:34:12 AM 47.9960 -3.6810 119° Southeast 549 632 45,000  Level FlightAware ADS-B
Mon 04:34:48 AM 47.9520 -3.5600 118° Southeast 548 631 45,000  Level FlightAware ADS-B
Mon 04:35:24 AM 47.9080 -3.4420 119° Southeast 546 628 45,000  Level FlightAware ADS-B
Mon 04:35:56 AM 47.8700 -3.3380 119° Southeast 546 628 45,000  Level FlightAware ADS-B
Mon 04:36:32 AM 47.8250 -3.2170 119° Southeast 548 631 45,000  Level FlightAware ADS-B
Mon 04:37:08 AM 47.7810 -3.0980 119° Southeast 548 631 45,000  Level FlightAware ADS-B
Mon 04:37:42 AM 47.7390 -2.9880 120° Southeast 548 631 45,000  Level FlightAware ADS-B
Mon 04:38:18 AM 47.6940 -2.8680 119° Southeast 550 633 45,000  Level FlightAware ADS-B
Mon 04:38:54 AM 47.6490 -2.7490 119° Southeast 548 631 45,000  Level FlightAware ADS-B
Mon 04:39:30 AM 47.6030 -2.6340 121° Southeast 545 627 45,000  Level FlightAware ADS-B
Mon 04:40:02 AM 47.5610 -2.5320 121° Southeast 547 629 45,000  Level FlightAware ADS-B
Mon 04:40:40 AM 47.5140 -2.4070 119° Southeast 547 629 45,000  Level FlightAware ADS-B
Mon 04:41:12 AM 47.4770 -2.3110 120° Southeast 545 627 45,000  Level FlightAware ADS-B
Mon 04:41:48 AM 47.4310 -2.1900 119° Southeast 545 627 45,000  Level FlightAware ADS-B
Mon 04:42:18 AM 47.3930 -2.0930 120° Southeast 541 623 45,000  Level FlightAware ADS-B
Mon 04:42:56 AM 47.3480 -1.9770 120° Southeast 541 623 45,000  Level FlightAware ADS-B
Mon 04:43:32 AM 47.3010 -1.8560 120° Southeast 542 624 45,000  Level FlightAware ADS-B
Mon 04:44:06 AM 47.2600 -1.7510 120° Southeast 539 620 45,000  Level FlightAware ADS-B
Mon 04:44:44 AM 47.2110 -1.6270 120° Southeast 540 621 45,000  Level FlightAware ADS-B
Mon 04:45:16 AM 47.1710 -1.5250 120° Southeast 542 624 45,000  Level FlightAware ADS-B
Mon 04:45:52 AM 47.1260 -1.4120 120° Southeast 541 623 45,000  Level FlightAware ADS-B
Mon 04:46:26 AM 47.0830 -1.3050 121° Southeast 537 618 45,000  Level FlightAware ADS-B
Mon 04:47:05 AM 47.0360 -1.1860 120° Southeast 538 619 45,000  Level FlightAware ADS-B
Mon 04:47:38 AM 46.9930 -1.0800 121° Southeast 541 623 45,000  Level FlightAware ADS-B
Mon 04:48:10 AM 46.9520 -0.9770 120° Southeast 538 619 45,000  Level FlightAware ADS-B
Mon 04:48:48 AM 46.9070 -0.8650 120° Southeast 540 621 45,000  Level FlightAware ADS-B
Mon 04:49:24 AM 46.8610 -0.7460 119° Southeast 542 624 45,000  Level FlightAware ADS-B
Mon 04:49:55 AM 46.8270 -0.6420 116° Southeast 545 627 45,000  Level FlightAware ADS-B
Mon 04:50:32 AM 46.7880 -0.5250 116° Southeast 545 627 45,000  Level FlightAware ADS-B
Mon 04:51:09 AM 46.7490 -0.4070 116° Southeast 545 627 45,000  Level FlightAware ADS-B
Mon 04:51:44 AM 46.7080 -0.2840 116° Southeast 541 623 45,000  Level FlightAware ADS-B
Mon 04:52:12 AM 46.6780 -0.1950 116° Southeast 542 624 45,000  Level FlightAware ADS-B
Mon 04:52:54 AM 46.6330 -0.0590 116° Southeast 541 623 45,000  Level FlightAware ADS-B
Mon 04:53:30 AM 46.5920 0.0610 116° Southeast 543 625 45,000  Level FlightAware ADS-B
Mon 04:53:59 AM 46.5610 0.1530 116° Southeast 541 623 45,000  Level FlightAware ADS-B
Mon 04:54:38 AM 46.5190 0.2770 116° Southeast 542 624 45,000  Level FlightAware ADS-B
Mon 04:55:11 AM 46.4820 0.3880 116° Southeast 542 624 45,000  Level FlightAware ADS-B
Mon 04:55:46 AM 46.4420 0.5040 117° Southeast 539 620 45,000  Level FlightAware ADS-B
Mon 04:56:22 AM 46.4010 0.6220 117° Southeast 538 619 45,000  Level FlightAware ADS-B
Mon 04:56:59 AM 46.3620 0.7360 116° Southeast 537 618 45,000  Level FlightAware ADS-B
Mon 04:57:34 AM 46.3230 0.8480 117° Southeast 538 619 45,000  Level FlightAware ADS-B
Mon 04:58:11 AM 46.2830 0.9610 117° Southeast 536 617 45,000  Level FlightAware ADS-B
Mon 04:58:42 AM 46.2480 1.0620 117° Southeast 538 619 45,000  Level FlightAware ADS-B
Mon 04:59:17 AM 46.2060 1.1820 117° Southeast 534 615 45,000  Level FlightAware ADS-B
Mon 04:59:50 AM 46.1710 1.2810 117° Southeast 532 612 45,000  Level FlightAware ADS-B
Mon 05:00:31 AM 46.1240 1.4140 117° Southeast 534 615 45,000  Level FlightAware ADS-B
Mon 05:01:02 AM 46.0900 1.5100 117° Southeast 533 613 45,000  Level FlightAware ADS-B
Mon 05:01:38 AM 46.0490 1.6250 117° Southeast 534 615 45,000  Level FlightAware ADS-B
Mon 05:02:12 AM 46.0110 1.7290 118° Southeast 531 611 45,000  Level FlightAware ADS-B
Mon 05:02:49 AM 45.9670 1.8510 117° Southeast 533 613 45,000  Level FlightAware ADS-B
Mon 05:03:26 AM 45.9270 1.9620 117° Southeast 537 618 45,000  Level FlightAware ADS-B
Mon 05:04:06 AM 45.8800 2.0910 118° Southeast 536 617 45,000  Level FlightAware ADS-B
Mon 05:04:42 AM 45.8410 2.2000 117° Southeast 535 616 45,000  Level FlightAware ADS-B
Mon 05:05:11 AM 45.8050 2.2960 118° Southeast 533 613 45,000  Level FlightAware ADS-B
Mon 05:05:52 AM 45.7600 2.4180 118° Southeast 529 609 45,000  Level FlightAware ADS-B
Mon 05:06:27 AM 45.7180 2.5270 119° Southeast 532 612 45,000  Level FlightAware ADS-B
Mon 05:06:59 AM 45.6800 2.6260 119° Southeast 527 606 45,000  Level FlightAware ADS-B
Mon 05:07:35 AM 45.6380 2.7360 119° Southeast 533 613 45,000  Level FlightAware ADS-B
Mon 05:08:19 AM 45.5880 2.8640 119° Southeast 535 616 45,000  Level FlightAware ADS-B
Mon 05:08:49 AM 45.5520 2.9580 119° Southeast 532 612 45,000  Level FlightAware ADS-B
Mon 05:09:28 AM 45.5020 3.0850 119° Southeast 536 617 45,000  Level FlightAware ADS-B
Mon 05:10:04 AM 45.4600 3.1920 119° Southeast 542 624 45,000  Level FlightAware ADS-B
Mon 05:10:36 AM 45.4200 3.2960 119° Southeast 531 611 45,000  Level FlightAware ADS-B
Mon 05:11:10 AM 45.3830 3.3900 119° Southeast 515 593 45,000  Level FlightAware ADS-B
Mon 05:11:46 AM 45.3390 3.5010 119° Southeast 522 601 45,000  Level FlightAware ADS-B
Mon 05:12:20 AM 45.2990 3.6020 119° Southeast 530 610 45,000  Level FlightAware ADS-B
Mon 05:12:58 AM 45.2520 3.7180 120° Southeast 528 608 45,000  Level FlightAware ADS-B
Mon 05:13:28 AM 45.2160 3.8070 120° Southeast 520 598 45,000  Level FlightAware ADS-B
Mon 05:14:07 AM 45.1670 3.9160 122° Southeast 514 592 45,000  Level FlightAware ADS-B
Mon 05:14:41 AM 45.1250 4.0100 122° Southeast 514 592 45,000  Level FlightAware ADS-B
Mon 05:15:15 AM 45.0780 4.1130 123° Southeast 518 596 45,000  Level FlightAware ADS-B
Mon 05:15:53 AM 45.0300 4.2190 123° Southeast 518 596 45,000  Level FlightAware ADS-B
Mon 05:16:29 AM 44.9820 4.3240 123° Southeast 518 596 45,000  Level FlightAware ADS-B
Mon 05:17:01 AM 44.9410 4.4140 123° Southeast 512 589 45,000  Level FlightAware ADS-B
Mon 05:17:37 AM 44.8940 4.5150 123° Southeast 517 595 45,000  Level FlightAware ADS-B
Mon 05:18:15 AM 44.8460 4.6210 123° Southeast 511 588 45,000  Level FlightAware ADS-B
Mon 05:18:47 AM 44.8010 4.7000 129° Southeast 514 592 45,000  Level FlightAware ADS-B
Mon 05:19:21 AM 44.7420 4.7830 135° Southeast 516 594 45,000  Level FlightAware ADS-B
Mon 05:19:59 AM 44.6780 4.8720 135° Southeast 516 594 45,000  Level FlightAware ADS-B
Mon 05:20:31 AM 44.6230 4.9490 135° Southeast 518 596 45,000  Level FlightAware ADS-B
Mon 05:21:07 AM 44.5620 5.0330 136° Southeast 510 587 45,000  Level FlightAware ADS-B
Mon 05:21:45 AM 44.4970 5.1230 135° Southeast 515 593 45,000  Level FlightAware ADS-B
Mon 05:22:19 AM 44.4410 5.2000 136° Southeast 511 588 45,000  Level FlightAware ADS-B
Mon 05:22:55 AM 44.3790 5.2850 136° Southeast 514 592 45,000  Level FlightAware ADS-B
Mon 05:23:27 AM 44.3270 5.3570 135° Southeast 511 588 45,000  Level FlightAware ADS-B
Mon 05:23:59 AM 44.2720 5.4330 135° Southeast 513 590 45,000  Level FlightAware ADS-B
Mon 05:24:39 AM 44.2040 5.5240 136° Southeast 509 586 45,000  Level FlightAware ADS-B
Mon 05:25:13 AM 44.1460 5.6030 136° Southeast 507 583 45,000  Level FlightAware ADS-B
Mon 05:25:49 AM 44.0930 5.6750 136° Southeast 506 582 45,000  Level FlightAware ADS-B
Mon 05:26:25 AM 44.0270 5.7630 136° Southeast 503 579 45,000  Level FlightAware ADS-B
Mon 05:26:57 AM 43.9730 5.8360 136° Southeast 506 582 45,000  Level FlightAware ADS-B
Mon 05:27:33 AM 43.9130 5.9180 135° Southeast 508 585 45,000  Level FlightAware ADS-B
Mon 05:28:09 AM 43.8520 5.9990 136° Southeast 504 580 45,000  Level FlightAware ADS-B
Mon 05:28:41 AM 43.8000 6.0680 136° Southeast 504 580 45,000  Level FlightAware ADS-B
Mon 05:29:19 AM 43.7340 6.1560 136° Southeast 509 586 45,000  Level FlightAware ADS-B
Mon 05:29:51 AM 43.6820 6.2250 136° Southeast 511 588 45,000  Level FlightAware ADS-B
Mon 05:30:25 AM 43.6220 6.3000 138° Southeast 500 575 45,000  Level FlightAware ADS-B
Mon 05:31:00 AM 43.5620 6.3690 140° Southeast 501 577 45,000  Level FlightAware ADS-B
Mon 05:31:39 AM 43.4900 6.4510 140° Southeast 499 574 45,000  Level FlightAware ADS-B
Mon 05:32:15 AM 43.4270 6.5240 140° Southeast 499 574 45,000  Level FlightAware ADS-B
Mon 05:32:51 AM 43.3620 6.5980 140° Southeast 503 579 45,000  Level FlightAware ADS-B
Mon 05:33:30 AM 43.2970 6.6720 140° Southeast 496 571 45,000  Level FlightAware ADS-B
Mon 05:34:10 AM 43.2220 6.7570 140° Southeast 494 568 45,000  Level FlightAware ADS-B
Mon 05:34:46 AM 43.1660 6.8210 140° Southeast 498 573 45,000  Level FlightAware ADS-B
Mon 05:35:25 AM 43.0920 6.9040 141° Southeast 502 578 45,000  Level FlightAware ADS-B
Mon 05:36:02 AM 43.0260 6.9780 141° Southeast 501 577 45,000  Level FlightAware ADS-B
Mon 05:36:36 AM 42.9670 7.0440 141° Southeast 500 575 45,000  Level FlightAware ADS-B
Mon 05:37:18 AM 42.8870 7.1330 141° Southeast 500 575 45,000  Level FlightAware ADS-B
Mon 05:37:53 AM 42.8240 7.2040 140° Southeast 499 574 45,000  Level FlightAware ADS-B
Mon 05:38:28 AM 42.7640 7.2710 141° Southeast 497 572 45,000  Level FlightAware ADS-B
Mon 05:39:08 AM 42.6930 7.3490 141° Southeast 498 573 45,000  Level FlightAware ADS-B
Mon 05:39:38 AM 42.6370 7.4120 140° Southeast 498 573 45,000  Level FlightAware ADS-B
Mon 05:40:18 AM 42.5640 7.4910 141° Southeast 501 577 45,000  Level FlightAware ADS-B
Mon 05:40:48 AM 42.5110 7.5500 141° Southeast 498 573 45,000  Level FlightAware ADS-B
Mon 05:41:23 AM 42.4500 7.6160 141° Southeast 499 574 45,000  Level FlightAware ADS-B
Mon 05:41:58 AM 42.3860 7.6860 141° Southeast 494 568 45,000  Level FlightAware ADS-B
Mon 05:42:33 AM 42.3240 7.7550 141° Southeast 485 558 45,000 -474 Level FlightAware ADS-B
Mon 05:43:14 AM 42.2530 7.8310 142° Southeast 498 573 44,400 -1,333 Descending FlightAware ADS-B
Mon 05:43:45 AM 42.1950 7.8950 141° Southeast 504 580 43,400 -2,000 Descending FlightAware ADS-B
Mon 05:44:23 AM 42.1240 7.9720 141° Southeast 509 586 42,100 -1,971 Descending FlightAware ADS-B
Mon 05:44:55 AM 42.0660 8.0340 142° Southeast 520 598 41,100 -2,118 Descending FlightAware ADS-B
Mon 05:45:31 AM 42.0000 8.1050 141° Southeast 511 588 39,700 -2,583 Descending FlightAware ADS-B
Mon 05:46:07 AM 41.9320 8.1780 141° Southeast 533 613 38,000 -2,917 Descending FlightAware ADS-B
Mon 05:46:43 AM 41.8610 8.2540 141° Southeast 528 608 36,200 -2,909 Descending FlightAware ADS-B
Mon 05:47:13 AM 41.8080 8.3100 142° Southeast 527 606 34,800 -2,955 Descending FlightAware ADS-B
Mon 05:47:50 AM 41.7370 8.3870 141° Southeast 518 596 32,900 -3,250 Descending FlightAware ADS-B
Mon 05:48:25 AM 41.6710 8.4560 142° Southeast 518 596 30,900 -3,429 Descending FlightAware ADS-B
Mon 05:49:00 AM 41.6060 8.5250 142° Southeast 497 572 28,900 -3,343 Descending FlightAware ADS-B
Mon 05:49:35 AM 41.5460 8.5890 141° Southeast 496 571 27,000 -3,429 Descending FlightAware ADS-B
Mon 05:50:10 AM 41.4820 8.6550 142° Southeast 478 550 24,900 -3,686 Descending FlightAware ADS-B
Mon 05:50:45 AM 41.4180 8.7230 141° Southeast 467 537 22,700 -3,616 Descending FlightAware ADS-B
Mon 05:51:23 AM 41.3540 8.7890 142° Southeast 450 518 20,500 -3,429 Descending FlightAware ADS-B
Mon 05:52:09 AM 41.2710 8.8400 155° Southeast 426 490 17,900 -2,741 Descending FlightAware ADS-B
Mon 05:52:44 AM 41.2080 8.8680 162° South 409 471 16,800 -1,800 Descending FlightAware ADS-B
Mon 05:53:19 AM 41.1450 8.9010 158° South 386 444 15,800 -1,973 Descending FlightAware ADS-B
Mon 05:53:57 AM 41.0840 8.9340 158° South 354 407 14,400 -2,108 Descending FlightAware ADS-B
Mon 05:54:33 AM 41.0330 8.9610 158° South 314 361 13,200 -2,029 Descending FlightAware ADS-B
Mon 05:55:05 AM 40.9920 8.9840 157° South 286 329 12,100 -2,000 Descending FlightAware ADS-B
Mon 05:55:39 AM 40.9520 9.0050 158° South 264 304 11,000 -1,913 Descending FlightAware ADS-B
Mon 05:56:14 AM 40.9110 9.0270 158° South 261 300 9,900 -1,920 Descending FlightAware ADS-B
Mon 05:56:29 AM 40.8940 9.0360 158° South 261 300 9,400 -1,886 Descending FlightAware ADS-B
Mon 05:56:49 AM 40.8710 9.0480 158° South 260 299 8,800 -1,650 Descending FlightAware ADS-B
Mon 05:57:09 AM 40.8480 9.0610 157° South 261 300 8,300 -1,733 Descending FlightAware ADS-B
Mon 05:57:34 AM 40.8190 9.0760 159° South 266 306 7,500 -2,000 Descending FlightAware ADS-B
Mon 05:57:54 AM 40.7950 9.0890 158° South 265 305 6,800 -2,057 Descending FlightAware ADS-B
Mon 05:58:09 AM 40.7790 9.1020 148° Southeast 271 312 6,300 -2,100 Descending FlightAware ADS-B
Mon 05:58:14 AM 40.7750 9.1080 131° Southeast 271 312 6,100 -1,680 Descending FlightAware ADS-B
Mon 05:58:34 AM 40.7620 9.1360 122° Southeast 259 298 5,600 -1,463 Descending FlightAware ADS-B
Mon 05:58:55 AM 40.7500 9.1630 120° Southeast 245 282 5,100 -800 Descending FlightAware ADS-B
Mon 05:59:04 AM 40.7460 9.1760 112° Southeast 230 265 5,200 857 Climbing FlightAware ADS-B
Mon 05:59:09 AM 40.7450 9.1830 101° East 232 267 5,300 1,000 Climbing FlightAware ADS-B
Mon 05:59:34 AM 40.7520 9.2150 74° East 227 261 5,700 1,200 Climbing FlightAware ADS-B
Mon 05:59:49 AM 40.7550 9.2370 80° East 229 264 6,100 600 Climbing FlightAware ADS-B
Mon 06:00:04 AM 40.7600 9.2560 71° East 228 262 6,000 -300 Descending FlightAware ADS-B
Mon 06:00:09 AM 40.7610 9.2640 81° East 228 262 6,000  Level FlightAware ADS-B
Mon 06:00:35 AM 40.7610 9.2940 90° East 228 262 6,000 -69 Level FlightAware ADS-B
Mon 06:01:36 AM 40.7040 9.2680 199° South 218 251 5,900 -73 Descending FlightAware ADS-B
Mon 06:01:57 AM 40.6910 9.2410 238° Southwest 219 252 5,900  Level FlightAware ADS-B
Mon 06:02:17 AM 40.6800 9.2170 239° Southwest 219 252 5,900  Level FlightAware ADS-B
Mon 06:02:37 AM 40.6720 9.1900 249° West 221 254 5,900 -128 Level FlightAware ADS-B
Mon 06:03:04 AM 40.6830 9.1620 297° West 224 258 5,800 -486 Descending FlightAware ADS-B
Mon 06:03:14 AM 40.6940 9.1600 352° North 215 247 5,600 -1,200 Descending FlightAware ADS-B
Mon 06:03:24 AM 40.7040 9.1650 21° North 220 253 5,400 -1,071 Descending FlightAware ADS-B
Mon 06:03:42 AM 40.7130 9.1730 34° Northeast 228 262 5,100 -471 Descending FlightAware ADS-B
Mon 06:04:15 AM 40.7340 9.2000 44° Northeast 229 264 5,000 -742 Descending FlightAware ADS-B
Mon 06:06:00 AM 40.8775 9.4767 55° Northeast  Level Estimated
Mon 06:07:00 AM 40.8987 9.5176 56° Northeast  Level Estimated
Mon 06:07:51 AM 40.8380 9.4030 303° West 2,000  Level FlightAware ADS-B
Mon 06:08:00 AM 40.8987 9.5176 303° West  Level Estimated
Mon 06:08:17 AM 40.8480 9.4210 54° Northeast 130 150 1,700  Level FlightAware ADS-B
Mon 06:08:44 AM 40.8560 9.4360 55° Northeast 130 150 1,700 -840 Level FlightAware ADS-B
Mon 06:09:07 AM 40.8650 9.4530 55° Northeast 119 137 1,000 -1,333 Descending FlightAware ADS-B
Mon 06:09:20 AM 40.8690 9.4600 53° Northeast 118 136 900 -295 Descending FlightAware ADS-B
Mon 06:10:08 AM 40.8820 9.4850 55° Northeast 115 132 700 -250 Descending FlightAware ADS-B
Mon 06:12:00 AM 40.8833 9.5167 137° Southeast  Level FlightAware Approximate
Mon 06:13:00 AM 40.8987 9.5176 137° Southeast  Level Estimated
Mon 06:14:00 AM 40.8987 9.5176 137° Southeast  Level Estimated
Mon 06:15:00 AM 40.8987 9.5176 137° Southeast  Level Estimated
Mon 06:16:00 AM 40.8987 9.5176 137° Southeast  Level Estimated

Login

Don't have an account? Register now (free) for customized features, flight alerts, and more!